sensor_id;sensor_type;location;lat;lon;timestamp;P1;durP1;ratioP1;P2;durP2;ratioP2
63112;SDS011;49206;48.020;21.378;2022-08-23T00:05:25;8.88;;;5.63;;
63112;SDS011;49206;48.020;21.378;2022-08-23T00:15:27;11.75;;;6.20;;
63112;SDS011;49206;48.020;21.378;2022-08-23T00:25:30;9.75;;;5.53;;
63112;SDS011;49206;48.020;21.378;2022-08-23T00:35:32;10.25;;;6.05;;
63112;SDS011;49206;48.020;21.378;2022-08-23T00:45:40;7.30;;;4.70;;
63112;SDS011;49206;48.020;21.378;2022-08-23T00:56:05;10.02;;;5.60;;
63112;SDS011;49206;48.020;21.378;2022-08-23T01:06:14;13.65;;;7.55;;
63112;SDS011;49206;48.020;21.378;2022-08-23T01:16:23;19.73;;;8.80;;
63112;SDS011;49206;48.020;21.378;2022-08-23T01:26:34;18.08;;;9.68;;
63112;SDS011;49206;48.020;21.378;2022-08-23T01:36:37;14.80;;;8.52;;
63112;SDS011;49206;48.020;21.378;2022-08-23T01:46:42;16.05;;;8.43;;
63112;SDS011;49206;48.020;21.378;2022-08-23T01:56:46;15.63;;;7.90;;
63112;SDS011;49206;48.020;21.378;2022-08-23T02:06:49;20.55;;;9.57;;
63112;SDS011;49206;48.020;21.378;2022-08-23T02:16:58;21.13;;;10.10;;
63112;SDS011;49206;48.020;21.378;2022-08-23T02:27:06;19.55;;;10.27;;
63112;SDS011;49206;48.020;21.378;2022-08-23T02:37:13;19.05;;;9.82;;
63112;SDS011;49206;48.020;21.378;2022-08-23T02:47:17;17.48;;;9.50;;
63112;SDS011;49206;48.020;21.378;2022-08-23T03:07:37;19.63;;;8.85;;
63112;SDS011;49206;48.020;21.378;2022-08-23T03:17:45;16.85;;;8.65;;
63112;SDS011;49206;48.020;21.378;2022-08-23T03:27:48;17.02;;;9.38;;
63112;SDS011;49206;48.020;21.378;2022-08-23T03:37:53;12.65;;;7.32;;
63112;SDS011;49206;48.020;21.378;2022-08-23T03:47:57;17.13;;;8.50;;
63112;SDS011;49206;48.020;21.378;2022-08-23T03:58:00;16.50;;;9.10;;
63112;SDS011;49206;48.020;21.378;2022-08-23T04:08:13;17.63;;;7.82;;
63112;SDS011;49206;48.020;21.378;2022-08-23T04:18:19;13.38;;;7.28;;
63112;SDS011;49206;48.020;21.378;2022-08-23T04:28:22;18.15;;;8.90;;
63112;SDS011;49206;48.020;21.378;2022-08-23T04:38:26;15.65;;;8.48;;
63112;SDS011;49206;48.020;21.378;2022-08-23T04:48:34;14.32;;;7.93;;
63112;SDS011;49206;48.020;21.378;2022-08-23T04:58:37;13.85;;;7.57;;
63112;SDS011;49206;48.020;21.378;2022-08-23T05:08:41;15.93;;;8.52;;
63112;SDS011;49206;48.020;21.378;2022-08-23T05:18:44;15.70;;;8.20;;
63112;SDS011;49206;48.020;21.378;2022-08-23T05:28:51;13.23;;;7.72;;
63112;SDS011;49206;48.020;21.378;2022-08-23T05:38:58;12.82;;;7.55;;
63112;SDS011;49206;48.020;21.378;2022-08-23T05:49:24;16.45;;;10.00;;
63112;SDS011;49206;48.020;21.378;2022-08-23T05:59:48;15.85;;;9.10;;
63112;SDS011;49206;48.020;21.378;2022-08-23T06:10:11;15.13;;;9.75;;
63112;SDS011;49206;48.020;21.378;2022-08-23T06:20:43;16.73;;;9.75;;
63112;SDS011;49206;48.020;21.378;2022-08-23T06:30:56;19.73;;;10.20;;
63112;SDS011;49206;48.020;21.378;2022-08-23T06:41:05;18.95;;;10.30;;
63112;SDS011;49206;48.020;21.378;2022-08-23T07:11:57;17.02;;;10.35;;
63112;SDS011;49206;48.020;21.378;2022-08-23T07:22:00;13.52;;;8.65;;
63112;SDS011;49206;48.020;21.378;2022-08-23T07:32:06;16.30;;;9.25;;
63112;SDS011;49206;48.020;21.378;2022-08-23T07:42:10;13.23;;;8.23;;
63112;SDS011;49206;48.020;21.378;2022-08-23T07:52:28;13.73;;;9.18;;
63112;SDS011;49206;48.020;21.378;2022-08-23T08:02:32;11.80;;;7.68;;
63112;SDS011;49206;48.020;21.378;2022-08-23T08:12:36;12.68;;;8.52;;
63112;SDS011;49206;48.020;21.378;2022-08-23T08:22:52;10.35;;;8.15;;
63112;SDS011;49206;48.020;21.378;2022-08-23T08:33:00;12.43;;;8.38;;
63112;SDS011;49206;48.020;21.378;2022-08-23T08:43:49;11.05;;;7.57;;
63112;SDS011;49206;48.020;21.378;2022-08-23T08:53:52;11.02;;;7.47;;
63112;SDS011;49206;48.020;21.378;2022-08-23T09:04:04;9.38;;;7.13;;
63112;SDS011;49206;48.020;21.378;2022-08-23T09:14:32;7.80;;;6.35;;
63112;SDS011;49206;48.020;21.378;2022-08-23T09:24:39;8.57;;;6.25;;
63112;SDS011;49206;48.020;21.378;2022-08-23T09:55:54;7.22;;;5.78;;
63112;SDS011;49206;48.020;21.378;2022-08-23T10:06:01;9.35;;;4.90;;
63112;SDS011;49206;48.020;21.378;2022-08-23T10:26:35;5.03;;;4.22;;
63112;SDS011;49206;48.020;21.378;2022-08-23T10:36:59;5.18;;;4.10;;
63112;SDS011;49206;48.020;21.378;2022-08-23T10:47:09;8.15;;;4.50;;
63112;SDS011;49206;48.020;21.378;2022-08-23T10:57:20;5.88;;;4.97;;
63112;SDS011;49206;48.020;21.378;2022-08-23T11:17:40;3.30;;;3.00;;
63112;SDS011;49206;48.020;21.378;2022-08-23T11:48:52;4.13;;;3.72;;
63112;SDS011;49206;48.020;21.378;2022-08-23T12:30:29;4.97;;;4.05;;
63112;SDS011;49206;48.020;21.378;2022-08-23T12:40:45;5.07;;;3.25;;
63112;SDS011;49206;48.020;21.378;2022-08-23T12:50:53;3.83;;;3.10;;
63112;SDS011;49206;48.020;21.378;2022-08-23T13:00:59;4.55;;;3.53;;
63112;SDS011;49206;48.020;21.378;2022-08-23T13:11:05;3.40;;;3.10;;
63112;SDS011;49206;48.020;21.378;2022-08-23T13:31:24;3.38;;;3.08;;
63112;SDS011;49206;48.020;21.378;2022-08-23T13:41:29;3.65;;;3.30;;
63112;SDS011;49206;48.020;21.378;2022-08-23T13:51:41;3.90;;;3.50;;
63112;SDS011;49206;48.020;21.378;2022-08-23T14:01:46;4.07;;;3.50;;
63112;SDS011;49206;48.020;21.378;2022-08-23T14:11:51;4.88;;;3.83;;
63112;SDS011;49206;48.020;21.378;2022-08-23T14:21:58;4.82;;;3.13;;
63112;SDS011;49206;48.020;21.378;2022-08-23T14:32:02;3.55;;;3.25;;
63112;SDS011;49206;48.020;21.378;2022-08-23T14:42:05;3.60;;;3.30;;
63112;SDS011;49206;48.020;21.378;2022-08-23T14:52:09;5.82;;;3.90;;
63112;SDS011;49206;48.020;21.378;2022-08-23T15:02:12;3.58;;;3.28;;
63112;SDS011;49206;48.020;21.378;2022-08-23T15:12:22;4.82;;;3.65;;
63112;SDS011;49206;48.020;21.378;2022-08-23T15:22:44;4.45;;;3.58;;
63112;SDS011;49206;48.020;21.378;2022-08-23T15:32:56;4.28;;;3.45;;
63112;SDS011;49206;48.020;21.378;2022-08-23T15:42:59;5.03;;;3.97;;
63112;SDS011;49206;48.020;21.378;2022-08-23T15:53:04;4.43;;;4.00;;
63112;SDS011;49206;48.020;21.378;2022-08-23T16:03:07;4.95;;;3.53;;
63112;SDS011;49206;48.020;21.378;2022-08-23T16:13:21;4.53;;;4.13;;
63112;SDS011;49206;48.020;21.378;2022-08-23T16:23:24;5.22;;;4.03;;
63112;SDS011;49206;48.020;21.378;2022-08-23T16:33:27;6.10;;;4.07;;
63112;SDS011;49206;48.020;21.378;2022-08-23T16:43:30;5.32;;;3.40;;
63112;SDS011;49206;48.020;21.378;2022-08-23T16:53:33;4.72;;;3.72;;
63112;SDS011;49206;48.020;21.378;2022-08-23T17:03:36;4.25;;;3.85;;
63112;SDS011;49206;48.020;21.378;2022-08-23T17:13:39;4.30;;;3.85;;
63112;SDS011;49206;48.020;21.378;2022-08-23T17:23:42;5.72;;;4.25;;
63112;SDS011;49206;48.020;21.378;2022-08-23T17:33:45;4.70;;;3.72;;
63112;SDS011;49206;48.020;21.378;2022-08-23T17:43:48;5.07;;;4.03;;
63112;SDS011;49206;48.020;21.378;2022-08-23T17:53:54;5.05;;;4.40;;
63112;SDS011;49206;48.020;21.378;2022-08-23T18:03:58;6.00;;;4.35;;
63112;SDS011;49206;48.020;21.378;2022-08-23T18:14:01;6.13;;;4.50;;
63112;SDS011;49206;48.020;21.378;2022-08-23T18:24:04;7.68;;;5.00;;
63112;SDS011;49206;48.020;21.378;2022-08-23T18:34:08;8.50;;;5.30;;
63112;SDS011;49206;48.020;21.378;2022-08-23T18:44:11;8.05;;;5.38;;
63112;SDS011;49206;48.020;21.378;2022-08-23T18:54:14;8.27;;;5.55;;
63112;SDS011;49206;48.020;21.378;2022-08-23T19:04:17;6.28;;;4.90;;
63112;SDS011;49206;48.020;21.378;2022-08-23T19:14:20;9.43;;;5.78;;
63112;SDS011;49206;48.020;21.378;2022-08-23T19:24:24;10.13;;;7.07;;
63112;SDS011;49206;48.020;21.378;2022-08-23T19:34:28;7.75;;;5.45;;
63112;SDS011;49206;48.020;21.378;2022-08-23T19:44:32;6.78;;;5.65;;
63112;SDS011;49206;48.020;21.378;2022-08-23T19:54:36;5.97;;;4.35;;
63112;SDS011;49206;48.020;21.378;2022-08-23T20:04:40;5.03;;;4.13;;
63112;SDS011;49206;48.020;21.378;2022-08-23T20:14:43;5.90;;;4.15;;
63112;SDS011;49206;48.020;21.378;2022-08-23T20:24:47;4.93;;;3.88;;
63112;SDS011;49206;48.020;21.378;2022-08-23T20:34:54;6.80;;;4.05;;
63112;SDS011;49206;48.020;21.378;2022-08-23T20:44:57;4.70;;;3.92;;
63112;SDS011;49206;48.020;21.378;2022-08-23T20:54:59;4.35;;;3.22;;
63112;SDS011;49206;48.020;21.378;2022-08-23T21:05:02;4.80;;;2.72;;
63112;SDS011;49206;48.020;21.378;2022-08-23T21:15:07;2.75;;;2.40;;
63112;SDS011;49206;48.020;21.378;2022-08-23T21:25:12;3.00;;;2.25;;
63112;SDS011;49206;48.020;21.378;2022-08-23T21:35:15;2.47;;;2.13;;
63112;SDS011;49206;48.020;21.378;2022-08-23T21:45:18;1.65;;;1.55;;
63112;SDS011;49206;48.020;21.378;2022-08-23T21:55:21;2.70;;;2.28;;
63112;SDS011;49206;48.020;21.378;2022-08-23T22:05:38;2.50;;;2.20;;
63112;SDS011;49206;48.020;21.378;2022-08-23T22:15:44;3.58;;;2.30;;
63112;SDS011;49206;48.020;21.378;2022-08-23T22:25:48;3.78;;;1.98;;
63112;SDS011;49206;48.020;21.378;2022-08-23T22:35:52;4.68;;;2.40;;
63112;SDS011;49206;48.020;21.378;2022-08-23T22:45:56;2.95;;;2.60;;
63112;SDS011;49206;48.020;21.378;2022-08-23T22:56:02;3.08;;;2.60;;
63112;SDS011;49206;48.020;21.378;2022-08-23T23:06:05;3.50;;;2.40;;
63112;SDS011;49206;48.020;21.378;2022-08-23T23:16:09;3.90;;;2.78;;
63112;SDS011;49206;48.020;21.378;2022-08-23T23:26:20;3.83;;;2.70;;
63112;SDS011;49206;48.020;21.378;2022-08-23T23:36:25;4.35;;;2.88;;
63112;SDS011;49206;48.020;21.378;2022-08-23T23:46:28;5.25;;;2.90;;
63112;SDS011;49206;48.020;21.378;2022-08-23T23:56:38;6.63;;;3.47;;
